KHMN/HMN METAR and TAF weather

Enter ICAO airport designator
Station Type Date Time Source
KHMN METAR 2020/08/15 09:58 UTC NOAA

KHMN 150958Z AUTO 10005KT 10SM SCT140 25/10 A3005 RMK AO2 SLP093 T02490104 $


Station Type Date Time Source
KHMN Decoded METAR 2020/08/15 09:58 UTC NOAA

Holloman Air Force Base, NM, United States (KHMN) 32-51N 106-06W 1248M
Aug 15, 2020 - 05:58 AM EDT / 2020.08.15 0958 UTC
Wind: from the E (100 degrees) at 6 MPH (5 KT):0
Visibility: 10 mile(s):0
Sky conditions: partly cloudy
Temperature: 76.8 F (24.9 C)
Dew Point: 50.7 F (10.4 C)
Relative Humidity: 40%
Pressure (altimeter): 30.05 in. Hg (1017 hPa)
ob: KHMN 150958Z AUTO 10005KT 10SM SCT140 25/10 A3005 RMK AO2 SLP093 T02490104
cycle: 10

Station Type Date Time Source
KHMN TAF 2020/08/15 23:59 UTC NOAA

TAF
AMD KHMN 142342Z 1423/1523 23010G18KT 9999 SCT140 QNH2996INS TS OMTNS
TEMPO 1423/1502 02020G35KT 8000 -TSRA BKN140CB
TEMPO 1502/1505 VRB12G20KT 8000 -TSRA BKN140CB
BECMG 1504/1505 29012KT 9999 BKN140 QNH3003INS
BECMG 1512/1513 VRB06KT 9999 SCT150 QNH3009INS
BECMG 1518/1519 19009KT 9999 SCT150 SCT200 QNH3006INS TX40/1423Z TN22/1512Z LAST NO
AMDS AFT 1500 NEXT 1709

Example: see airport list